createdAt,value
2019-05-20T00:02:03.137Z,17.10
2019-05-20T00:06:04.145Z,16.70
2019-05-20T00:10:06.305Z,16.40
2019-05-20T00:14:07.210Z,16.80
2019-05-20T00:18:08.106Z,17.00
2019-05-20T00:22:09.006Z,16.90
2019-05-20T00:26:09.933Z,16.90
2019-05-20T00:30:11.315Z,16.80
2019-05-20T00:34:12.247Z,16.90
2019-05-20T00:38:13.130Z,17.10
2019-05-20T00:42:14.013Z,17.00
2019-05-20T00:46:14.891Z,17.10
2019-05-20T00:50:15.974Z,16.90
2019-05-20T00:54:16.861Z,16.90
2019-05-20T00:58:17.945Z,16.80
2019-05-20T01:02:19.019Z,16.60
2019-05-20T01:06:19.971Z,15.90
2019-05-20T01:10:20.939Z,16.20
2019-05-20T01:14:21.845Z,16.10
2019-05-20T01:18:22.770Z,16.20
2019-05-20T01:22:23.683Z,16.50
2019-05-20T01:26:24.734Z,16.60
2019-05-20T01:30:25.743Z,16.70
2019-05-20T01:34:26.600Z,16.70
2019-05-20T01:38:27.499Z,16.40
2019-05-20T01:42:28.385Z,16.40
2019-05-20T01:46:29.337Z,16.50
2019-05-20T01:50:30.234Z,16.30
2019-05-20T01:54:31.233Z,15.60
2019-05-20T01:58:32.153Z,16.10
2019-05-20T02:02:33.165Z,16.40
2019-05-20T02:06:34.114Z,16.20
2019-05-20T02:10:35.094Z,16.30
2019-05-20T02:14:37.925Z,16.30
2019-05-20T02:18:38.905Z,16.40
2019-05-20T02:22:39.796Z,16.30
2019-05-20T02:26:40.748Z,16.10
2019-05-20T02:30:41.884Z,16.00
2019-05-20T02:34:42.987Z,16.00
2019-05-20T02:38:43.875Z,15.80
2019-05-20T02:42:44.746Z,15.60
2019-05-20T02:46:45.813Z,16.00
2019-05-20T02:50:46.793Z,15.40
2019-05-20T02:54:47.694Z,15.70
2019-05-20T02:58:48.580Z,15.20
2019-05-20T03:02:49.457Z,15.90
2019-05-20T03:06:50.339Z,16.30
2019-05-20T03:10:51.290Z,16.30
2019-05-20T03:14:52.256Z,16.30
2019-05-20T03:18:53.135Z,16.50
2019-05-20T03:22:54.039Z,16.50
2019-05-20T03:26:54.921Z,15.70
2019-05-20T03:30:55.814Z,15.60
2019-05-20T03:35:00.084Z,14.80
2019-05-20T03:38:59.754Z,15.70
2019-05-20T03:43:00.630Z,16.10
2019-05-20T03:47:01.666Z,16.50
2019-05-20T03:51:02.728Z,16.30
2019-05-20T03:55:05.388Z,16.70
2019-05-20T03:59:06.273Z,17.00
2019-05-20T04:03:07.206Z,16.60
2019-05-20T04:07:08.099Z,16.50
2019-05-20T04:11:08.983Z,16.80
2019-05-20T04:15:10.295Z,16.40
2019-05-20T04:19:14.478Z,16.70
2019-05-20T04:23:17.779Z,17.20
2019-05-20T04:27:18.866Z,17.20
2019-05-20T04:31:20.118Z,17.10
2019-05-20T04:35:23.197Z,17.00
2019-05-20T04:39:24.118Z,16.80
2019-05-20T04:43:25.310Z,17.00
2019-05-20T04:47:26.175Z,16.60
2019-05-20T04:51:27.015Z,16.70
2019-05-20T04:55:27.919Z,17.30
2019-05-20T04:59:28.861Z,16.30
2019-05-20T05:03:29.878Z,16.50
2019-05-20T05:07:30.734Z,16.30
2019-05-20T05:11:31.636Z,15.90
2019-05-20T05:15:32.739Z,15.50
2019-05-20T05:19:33.833Z,16.20
2019-05-20T05:23:34.933Z,15.80
2019-05-20T05:27:36.006Z,16.20
2019-05-20T05:31:37.036Z,16.80
2019-05-20T05:35:50.817Z,16.40
2019-05-20T05:39:40.718Z,17.20
2019-05-20T05:43:41.678Z,17.20
2019-05-20T05:47:42.560Z,17.20
2019-05-20T05:51:43.442Z,17.50
2019-05-20T05:55:44.347Z,17.60
2019-05-20T05:59:45.224Z,17.10
2019-05-20T06:03:46.090Z,17.40
2019-05-20T06:07:47.093Z,18.00
2019-05-20T06:11:47.972Z,17.70
2019-05-20T06:15:48.882Z,17.10
2019-05-20T06:19:49.726Z,16.70
2019-05-20T06:23:50.639Z,16.80
2019-05-20T06:27:51.605Z,17.20
2019-05-20T06:31:52.641Z,17.90
2019-05-20T06:35:53.835Z,17.70
2019-05-20T06:39:54.779Z,17.10
2019-05-20T06:43:55.650Z,17.10
2019-05-20T06:47:56.517Z,16.50
2019-05-20T06:51:57.623Z,17.20
2019-05-20T06:55:58.640Z,17.30
2019-05-20T06:59:59.611Z,17.60
2019-05-20T07:04:00.493Z,17.60
2019-05-20T07:08:01.647Z,17.00
2019-05-20T07:12:03.085Z,17.00
2019-05-20T07:16:04.169Z,16.20
2019-05-20T07:20:05.325Z,16.90
2019-05-20T07:24:06.352Z,17.40
2019-05-20T07:28:07.340Z,17.60
2019-05-20T07:32:08.249Z,17.70
2019-05-20T07:36:10.166Z,17.10
2019-05-20T07:40:13.576Z,17.90
2019-05-20T07:44:14.587Z,17.60
2019-05-20T07:48:15.746Z,17.80
2019-05-20T07:52:17.217Z,18.80
2019-05-20T07:56:21.891Z,19.90
2019-05-20T08:00:22.897Z,18.70
2019-05-20T08:04:23.911Z,17.80
2019-05-20T08:08:25.049Z,18.10
2019-05-20T08:12:45.811Z,18.50
2019-05-20T08:16:46.906Z,18.90
2019-05-20T08:20:47.936Z,18.70
2019-05-20T08:24:49.682Z,18.80
2019-05-20T08:28:50.912Z,18.90
2019-05-20T08:32:54.080Z,19.00
2019-05-20T08:36:55.157Z,18.30
2019-05-20T08:40:56.146Z,18.40
2019-05-20T08:44:57.185Z,18.60
2019-05-20T08:48:58.372Z,19.60
2019-05-20T08:52:59.332Z,19.00
2019-05-20T08:57:02.936Z,19.10
2019-05-20T09:01:04.026Z,19.20
2019-05-20T09:05:05.743Z,19.20
2019-05-20T09:09:06.861Z,19.20
2019-05-20T09:13:07.961Z,20.50
2019-05-20T09:17:08.985Z,19.30
2019-05-20T09:21:10.192Z,19.50
2019-05-20T09:25:11.908Z,18.70
2019-05-20T09:29:13.035Z,19.50
2019-05-20T09:33:14.766Z,19.70
2019-05-20T09:37:16.216Z,19.00
2019-05-20T09:41:17.147Z,18.80
2019-05-20T09:45:18.217Z,20.10
2019-05-20T09:49:19.140Z,20.20
2019-05-20T09:53:20.543Z,21.00
2019-05-20T09:57:21.649Z,20.60
2019-05-20T10:01:22.852Z,20.50
2019-05-20T10:05:23.936Z,20.30
2019-05-20T10:09:24.819Z,20.80
2019-05-20T10:13:25.802Z,20.20
2019-05-20T10:17:26.695Z,20.20
2019-05-20T10:21:27.702Z,20.60
2019-05-20T10:25:28.576Z,22.00
2019-05-20T10:29:29.478Z,22.60
2019-05-20T10:33:30.397Z,22.40
2019-05-20T10:37:31.280Z,22.00
2019-05-20T10:41:32.161Z,22.20
2019-05-20T10:45:33.271Z,22.10
2019-05-20T10:49:34.244Z,21.50
2019-05-20T10:53:35.150Z,22.00
2019-05-20T10:57:36.125Z,21.60
2019-05-20T11:01:37.021Z,22.10
2019-05-20T11:05:38.131Z,21.60
2019-05-20T11:09:39.111Z,21.10
2019-05-20T11:13:39.989Z,21.20
2019-05-20T11:17:40.922Z,20.50
2019-05-20T11:21:41.789Z,20.60
2019-05-20T11:25:42.704Z,21.90
2019-05-20T11:29:43.703Z,21.90
2019-05-20T11:33:44.593Z,20.60
2019-05-20T11:37:45.584Z,20.30
2019-05-20T11:41:53.377Z,20.40
2019-05-20T11:45:49.475Z,20.20
2019-05-20T11:49:50.462Z,18.80
2019-05-20T11:53:51.469Z,18.70
2019-05-20T11:57:52.736Z,19.80
2019-05-20T12:01:53.631Z,20.10
2019-05-20T12:05:54.741Z,20.30
2019-05-20T12:09:55.677Z,19.10
2019-05-20T12:13:56.544Z,19.50
2019-05-20T12:17:57.589Z,18.20
2019-05-20T12:21:58.481Z,18.10
2019-05-20T12:25:59.368Z,18.60
2019-05-20T12:30:00.308Z,19.30
2019-05-20T12:34:01.309Z,18.70
2019-05-20T12:38:02.183Z,19.80
2019-05-20T12:42:03.416Z,18.30
2019-05-20T12:46:04.448Z,19.20
2019-05-20T12:50:05.654Z,19.00
2019-05-20T12:54:09.103Z,19.90
2019-05-20T12:58:10.086Z,19.30
2019-05-20T13:02:11.136Z,19.20
2019-05-20T13:06:11.979Z,18.80
2019-05-20T13:10:27.747Z,19.10
2019-05-20T13:14:16.042Z,18.30
2019-05-20T13:18:17.124Z,18.60
2019-05-20T13:22:18.060Z,19.30
2019-05-20T13:26:19.238Z,19.10
2019-05-20T13:30:20.955Z,18.20
2019-05-20T13:34:21.826Z,17.90
2019-05-20T13:38:23.266Z,18.20
2019-05-20T13:42:24.176Z,18.00
2019-05-20T13:46:25.058Z,18.40
2019-05-20T13:50:26.051Z,17.70
2019-05-20T13:54:27.121Z,17.90
2019-05-20T13:58:28.046Z,17.90
2019-05-20T14:02:28.913Z,17.40
2019-05-20T14:06:29.896Z,17.20
2019-05-20T14:10:30.909Z,17.60
2019-05-20T14:14:31.837Z,18.10
2019-05-20T14:18:37.015Z,17.80
2019-05-20T14:22:38.148Z,17.20
2019-05-20T14:26:39.036Z,17.00
2019-05-20T14:30:40.032Z,16.90
2019-05-20T14:34:40.986Z,17.10
2019-05-20T14:38:42.389Z,16.90
2019-05-20T14:42:43.293Z,17.10
2019-05-20T14:46:44.186Z,17.50
2019-05-20T14:50:45.088Z,17.70
2019-05-20T14:54:47.893Z,18.20
2019-05-20T14:58:48.772Z,18.70
2019-05-20T15:02:49.716Z,18.10
2019-05-20T15:06:50.711Z,17.90
2019-05-20T15:10:51.616Z,18.40
2019-05-20T15:14:52.850Z,16.90
2019-05-20T15:18:53.850Z,18.10
2019-05-20T15:22:54.763Z,18.20
2019-05-20T15:26:55.888Z,18.00
2019-05-20T15:30:56.964Z,17.80
2019-05-20T15:34:57.896Z,18.10
2019-05-20T15:38:58.855Z,16.60
2019-05-20T15:42:59.869Z,16.90
2019-05-20T15:47:00.843Z,16.80
2019-05-20T15:51:01.834Z,17.30
2019-05-20T15:55:04.125Z,17.60
2019-05-20T15:59:06.965Z,17.80
2019-05-20T16:03:07.845Z,17.70
2019-05-20T16:07:08.854Z,16.50
2019-05-20T16:11:09.738Z,16.80
2019-05-20T16:15:11.002Z,17.00
2019-05-20T16:19:12.127Z,17.20
2019-05-20T16:23:13.482Z,17.00
2019-05-20T16:27:14.790Z,16.60
2019-05-20T16:31:15.813Z,16.20
2019-05-20T16:35:16.806Z,16.30
2019-05-20T16:39:17.744Z,16.10
2019-05-20T16:43:18.634Z,16.40
2019-05-20T16:47:19.730Z,17.10
2019-05-20T16:51:22.410Z,16.60
2019-05-20T16:55:23.701Z,17.10
2019-05-20T16:59:24.672Z,17.20
2019-05-20T17:03:25.589Z,17.80
2019-05-20T17:07:26.566Z,17.20
2019-05-20T17:11:27.489Z,17.10
2019-05-20T17:15:28.388Z,17.20
2019-05-20T17:19:29.302Z,17.20
2019-05-20T17:23:30.402Z,17.00
2019-05-20T17:27:31.387Z,16.70
2019-05-20T17:31:32.381Z,17.30
2019-05-20T17:35:33.400Z,16.60
2019-05-20T17:39:34.489Z,17.30
2019-05-20T17:43:40.425Z,16.40
2019-05-20T17:47:41.565Z,16.90
2019-05-20T17:51:43.369Z,17.20
2019-05-20T17:55:44.584Z,17.10
2019-05-20T17:59:45.454Z,17.00
2019-05-20T18:03:46.455Z,17.10
2019-05-20T18:07:47.931Z,17.20
2019-05-20T18:11:49.120Z,17.20
2019-05-20T18:15:50.088Z,16.80
2019-05-20T18:19:51.037Z,17.20
2019-05-20T18:23:51.979Z,16.70
2019-05-20T18:27:53.023Z,17.00
2019-05-20T18:31:54.075Z,17.50
2019-05-20T18:35:55.173Z,16.70
2019-05-20T18:39:56.059Z,16.50
2019-05-20T18:43:56.952Z,16.60
2019-05-20T18:47:57.953Z,16.40
2019-05-20T18:51:58.851Z,16.50
2019-05-20T18:55:59.942Z,16.30
2019-05-20T19:00:01.140Z,16.20
2019-05-20T19:04:02.107Z,15.90
2019-05-20T19:08:03.154Z,16.20
2019-05-20T19:12:04.111Z,16.50
2019-05-20T19:16:05.240Z,16.00
2019-05-20T19:20:06.378Z,16.20
2019-05-20T19:24:07.490Z,16.00
2019-05-20T19:28:08.368Z,15.80
2019-05-20T19:32:10.182Z,16.00
2019-05-20T19:36:11.216Z,15.70
2019-05-20T19:40:12.480Z,16.70
2019-05-20T19:44:13.622Z,16.30
2019-05-20T19:48:14.704Z,16.80
2019-05-20T19:52:15.771Z,16.10
2019-05-20T19:56:16.766Z,16.60
2019-05-20T20:00:17.822Z,16.20
2019-05-20T20:04:18.763Z,16.80
2019-05-20T20:08:19.643Z,16.80
2019-05-20T20:12:20.551Z,15.90
2019-05-20T20:16:21.540Z,16.50
2019-05-20T20:20:22.567Z,16.00
2019-05-20T20:24:23.672Z,15.80
2019-05-20T20:28:24.565Z,16.20
2019-05-20T20:32:37.473Z,16.20
2019-05-20T20:36:28.352Z,16.00
2019-05-20T20:40:29.205Z,15.90
2019-05-20T20:44:30.109Z,16.20
2019-05-20T20:48:31.123Z,16.30
2019-05-20T20:52:32.610Z,16.80
2019-05-20T20:56:34.330Z,16.30
2019-05-20T21:00:35.486Z,16.40
2019-05-20T21:04:37.057Z,16.80
2019-05-20T21:08:38.019Z,16.50
2019-05-20T21:12:38.951Z,15.90
2019-05-20T21:16:39.996Z,16.50
2019-05-20T21:20:40.875Z,16.90
2019-05-20T21:24:41.852Z,15.40
2019-05-20T21:28:42.723Z,16.00
2019-05-20T21:32:43.849Z,15.40
2019-05-20T21:36:47.906Z,16.60
2019-05-20T21:40:47.694Z,15.70
2019-05-20T21:44:48.656Z,15.90
2019-05-20T21:48:49.554Z,16.10
2019-05-20T21:52:50.429Z,15.10
2019-05-20T21:56:51.305Z,15.70
2019-05-20T22:00:54.115Z,16.50
2019-05-20T22:04:55.003Z,15.40
2019-05-20T22:08:55.905Z,15.40
2019-05-20T22:12:56.875Z,15.70
2019-05-20T22:16:57.970Z,16.00
2019-05-20T22:20:59.066Z,15.60
2019-05-20T22:24:59.982Z,15.40
2019-05-20T22:29:01.170Z,15.80
2019-05-20T22:33:02.158Z,15.70
2019-05-20T22:37:03.106Z,15.50
2019-05-20T22:41:03.996Z,15.90
2019-05-20T22:45:05.385Z,16.30
2019-05-20T22:49:06.324Z,15.30
2019-05-20T22:53:07.340Z,15.70
2019-05-20T22:57:08.220Z,15.90
2019-05-20T23:01:09.339Z,15.50
2019-05-20T23:05:10.831Z,15.00
2019-05-20T23:09:14.756Z,15.80
2019-05-20T23:13:14.709Z,15.10
2019-05-20T23:17:15.677Z,15.10
2019-05-20T23:21:16.663Z,15.40
2019-05-20T23:25:17.641Z,15.00
2019-05-20T23:29:18.538Z,15.10
2019-05-20T23:33:19.621Z,14.70
2019-05-20T23:37:20.580Z,15.50
2019-05-20T23:41:21.429Z,14.40
2019-05-20T23:45:22.519Z,15.20
2019-05-20T23:49:23.388Z,14.60
2019-05-20T23:53:24.265Z,14.90
2019-05-20T23:57:25.237Z,15.60
